sensor_id;sensor_type;location;lat;lon;timestamp;P1;durP1;ratioP1;P2;durP2;ratioP2
60935;SDS011;46804;51.786;19.520;2023-04-16T00:02:29;19.30;;;9.40;;
60935;SDS011;46804;51.786;19.520;2023-04-16T00:06:30;16.13;;;9.52;;
60935;SDS011;46804;51.786;19.520;2023-04-16T00:10:31;14.35;;;9.10;;
60935;SDS011;46804;51.786;19.520;2023-04-16T00:14:33;16.13;;;9.13;;
60935;SDS011;46804;51.786;19.520;2023-04-16T00:18:34;13.65;;;9.52;;
60935;SDS011;46804;51.786;19.520;2023-04-16T00:22:35;15.10;;;9.55;;
60935;SDS011;46804;51.786;19.520;2023-04-16T00:26:36;15.85;;;10.68;;
60935;SDS011;46804;51.786;19.520;2023-04-16T00:30:37;20.08;;;10.65;;
60935;SDS011;46804;51.786;19.520;2023-04-16T00:34:37;17.02;;;10.88;;
60935;SDS011;46804;51.786;19.520;2023-04-16T00:38:38;17.75;;;10.25;;
60935;SDS011;46804;51.786;19.520;2023-04-16T00:42:39;16.13;;;10.57;;
60935;SDS011;46804;51.786;19.520;2023-04-16T00:46:40;16.23;;;10.15;;
60935;SDS011;46804;51.786;19.520;2023-04-16T00:50:41;16.70;;;9.85;;
60935;SDS011;46804;51.786;19.520;2023-04-16T00:54:42;16.65;;;10.63;;
60935;SDS011;46804;51.786;19.520;2023-04-16T00:58:43;19.30;;;10.90;;
60935;SDS011;46804;51.786;19.520;2023-04-16T01:02:44;15.90;;;9.63;;
60935;SDS011;46804;51.786;19.520;2023-04-16T01:06:44;18.43;;;11.13;;
60935;SDS011;46804;51.786;19.520;2023-04-16T01:10:45;19.60;;;11.65;;
60935;SDS011;46804;51.786;19.520;2023-04-16T01:14:45;24.75;;;12.00;;
60935;SDS011;46804;51.786;19.520;2023-04-16T01:18:46;20.40;;;12.13;;
60935;SDS011;46804;51.786;19.520;2023-04-16T01:22:47;23.05;;;12.75;;
60935;SDS011;46804;51.786;19.520;2023-04-16T01:26:48;23.00;;;13.20;;
60935;SDS011;46804;51.786;19.520;2023-04-16T01:30:49;22.20;;;13.23;;
60935;SDS011;46804;51.786;19.520;2023-04-16T01:34:49;20.80;;;13.07;;
60935;SDS011;46804;51.786;19.520;2023-04-16T01:38:50;27.00;;;15.02;;
60935;SDS011;46804;51.786;19.520;2023-04-16T01:42:51;24.75;;;14.55;;
60935;SDS011;46804;51.786;19.520;2023-04-16T01:46:51;24.45;;;14.40;;
60935;SDS011;46804;51.786;19.520;2023-04-16T01:50:52;25.10;;;14.70;;
60935;SDS011;46804;51.786;19.520;2023-04-16T01:54:53;29.70;;;16.10;;
60935;SDS011;46804;51.786;19.520;2023-04-16T01:58:53;27.83;;;14.95;;
60935;SDS011;46804;51.786;19.520;2023-04-16T02:02:54;25.35;;;15.52;;
60935;SDS011;46804;51.786;19.520;2023-04-16T02:06:55;27.45;;;15.23;;
60935;SDS011;46804;51.786;19.520;2023-04-16T02:10:56;26.55;;;15.02;;
60935;SDS011;46804;51.786;19.520;2023-04-16T02:14:58;28.17;;;15.02;;
60935;SDS011;46804;51.786;19.520;2023-04-16T02:18:59;24.75;;;14.55;;
60935;SDS011;46804;51.786;19.520;2023-04-16T02:23:01;27.70;;;15.13;;
60935;SDS011;46804;51.786;19.520;2023-04-16T02:27:01;22.80;;;14.52;;
60935;SDS011;46804;51.786;19.520;2023-04-16T02:31:03;27.52;;;15.75;;
60935;SDS011;46804;51.786;19.520;2023-04-16T02:35:04;28.15;;;17.23;;
60935;SDS011;46804;51.786;19.520;2023-04-16T02:39:05;33.03;;;16.85;;
60935;SDS011;46804;51.786;19.520;2023-04-16T02:43:06;30.10;;;16.48;;
60935;SDS011;46804;51.786;19.520;2023-04-16T02:47:06;34.13;;;17.70;;
60935;SDS011;46804;51.786;19.520;2023-04-16T02:51:07;34.42;;;17.17;;
60935;SDS011;46804;51.786;19.520;2023-04-16T02:55:08;29.30;;;15.63;;
60935;SDS011;46804;51.786;19.520;2023-04-16T02:59:09;35.78;;;18.30;;
60935;SDS011;46804;51.786;19.520;2023-04-16T03:03:10;34.75;;;17.90;;
60935;SDS011;46804;51.786;19.520;2023-04-16T03:07:11;27.73;;;15.65;;
60935;SDS011;46804;51.786;19.520;2023-04-16T03:11:12;26.80;;;15.23;;
60935;SDS011;46804;51.786;19.520;2023-04-16T03:15:12;30.92;;;15.43;;
60935;SDS011;46804;51.786;19.520;2023-04-16T03:19:13;28.65;;;16.73;;
60935;SDS011;46804;51.786;19.520;2023-04-16T03:23:14;33.05;;;17.08;;
60935;SDS011;46804;51.786;19.520;2023-04-16T03:27:15;37.00;;;16.63;;
60935;SDS011;46804;51.786;19.520;2023-04-16T03:31:16;30.48;;;16.50;;
60935;SDS011;46804;51.786;19.520;2023-04-16T03:35:17;30.35;;;15.20;;
60935;SDS011;46804;51.786;19.520;2023-04-16T03:39:17;27.63;;;15.40;;
60935;SDS011;46804;51.786;19.520;2023-04-16T03:43:18;30.08;;;16.20;;
60935;SDS011;46804;51.786;19.520;2023-04-16T03:47:19;28.77;;;15.88;;
60935;SDS011;46804;51.786;19.520;2023-04-16T03:51:20;34.40;;;16.63;;
60935;SDS011;46804;51.786;19.520;2023-04-16T03:55:20;27.85;;;16.05;;
60935;SDS011;46804;51.786;19.520;2023-04-16T03:59:21;28.30;;;15.70;;
60935;SDS011;46804;51.786;19.520;2023-04-16T04:03:22;30.20;;;16.45;;
60935;SDS011;46804;51.786;19.520;2023-04-16T04:07:23;32.58;;;16.55;;
60935;SDS011;46804;51.786;19.520;2023-04-16T04:11:23;28.52;;;15.43;;
60935;SDS011;46804;51.786;19.520;2023-04-16T04:15:24;30.88;;;16.20;;
60935;SDS011;46804;51.786;19.520;2023-04-16T04:19:25;29.35;;;15.80;;
60935;SDS011;46804;51.786;19.520;2023-04-16T04:23:26;26.75;;;15.15;;
60935;SDS011;46804;51.786;19.520;2023-04-16T04:27:26;28.67;;;14.80;;
60935;SDS011;46804;51.786;19.520;2023-04-16T04:31:27;30.33;;;16.23;;
60935;SDS011;46804;51.786;19.520;2023-04-16T04:35:28;27.48;;;15.13;;
60935;SDS011;46804;51.786;19.520;2023-04-16T04:39:28;30.25;;;15.32;;
60935;SDS011;46804;51.786;19.520;2023-04-16T04:43:29;25.95;;;14.80;;
60935;SDS011;46804;51.786;19.520;2023-04-16T04:47:30;31.20;;;15.88;;
60935;SDS011;46804;51.786;19.520;2023-04-16T04:51:30;25.70;;;15.35;;
60935;SDS011;46804;51.786;19.520;2023-04-16T04:55:31;27.27;;;14.98;;
60935;SDS011;46804;51.786;19.520;2023-04-16T04:59:32;30.65;;;15.88;;
60935;SDS011;46804;51.786;19.520;2023-04-16T05:03:33;30.38;;;16.38;;
60935;SDS011;46804;51.786;19.520;2023-04-16T05:07:34;31.85;;;14.82;;
60935;SDS011;46804;51.786;19.520;2023-04-16T05:11:35;27.98;;;15.63;;
60935;SDS011;46804;51.786;19.520;2023-04-16T05:15:35;26.10;;;15.32;;
60935;SDS011;46804;51.786;19.520;2023-04-16T05:19:37;25.73;;;14.23;;
60935;SDS011;46804;51.786;19.520;2023-04-16T05:23:37;22.48;;;14.02;;
60935;SDS011;46804;51.786;19.520;2023-04-16T05:27:38;26.80;;;14.57;;
60935;SDS011;46804;51.786;19.520;2023-04-16T05:31:39;24.05;;;13.98;;
60935;SDS011;46804;51.786;19.520;2023-04-16T05:35:40;24.45;;;14.93;;
60935;SDS011;46804;51.786;19.520;2023-04-16T05:39:41;26.60;;;14.85;;
60935;SDS011;46804;51.786;19.520;2023-04-16T05:43:42;25.73;;;14.07;;
60935;SDS011;46804;51.786;19.520;2023-04-16T05:47:42;26.58;;;15.20;;
60935;SDS011;46804;51.786;19.520;2023-04-16T05:51:44;26.33;;;15.18;;
60935;SDS011;46804;51.786;19.520;2023-04-16T05:55:45;24.38;;;13.70;;
60935;SDS011;46804;51.786;19.520;2023-04-16T05:59:46;23.88;;;14.05;;
60935;SDS011;46804;51.786;19.520;2023-04-16T06:03:47;21.95;;;13.07;;
60935;SDS011;46804;51.786;19.520;2023-04-16T06:07:48;23.70;;;14.27;;
60935;SDS011;46804;51.786;19.520;2023-04-16T06:11:49;22.33;;;13.15;;
60935;SDS011;46804;51.786;19.520;2023-04-16T06:15:49;22.55;;;13.38;;
60935;SDS011;46804;51.786;19.520;2023-04-16T06:19:50;25.02;;;14.68;;
60935;SDS011;46804;51.786;19.520;2023-04-16T06:23:51;22.92;;;13.63;;
60935;SDS011;46804;51.786;19.520;2023-04-16T06:27:52;25.05;;;16.20;;
60935;SDS011;46804;51.786;19.520;2023-04-16T06:31:53;35.35;;;19.48;;
60935;SDS011;46804;51.786;19.520;2023-04-16T06:35:54;24.23;;;14.50;;
60935;SDS011;46804;51.786;19.520;2023-04-16T06:39:54;22.55;;;13.68;;
60935;SDS011;46804;51.786;19.520;2023-04-16T06:43:55;21.77;;;13.68;;
60935;SDS011;46804;51.786;19.520;2023-04-16T06:47:56;26.05;;;16.35;;
60935;SDS011;46804;51.786;19.520;2023-04-16T06:51:58;28.65;;;18.67;;
60935;SDS011;46804;51.786;19.520;2023-04-16T06:55:59;24.23;;;14.85;;
60935;SDS011;46804;51.786;19.520;2023-04-16T07:00:00;21.63;;;14.05;;
60935;SDS011;46804;51.786;19.520;2023-04-16T07:04:01;21.35;;;13.13;;
60935;SDS011;46804;51.786;19.520;2023-04-16T07:08:02;19.40;;;13.05;;
60935;SDS011;46804;51.786;19.520;2023-04-16T07:12:03;24.13;;;14.98;;
60935;SDS011;46804;51.786;19.520;2023-04-16T07:16:04;22.58;;;13.50;;
60935;SDS011;46804;51.786;19.520;2023-04-16T07:20:05;23.20;;;14.25;;
60935;SDS011;46804;51.786;19.520;2023-04-16T07:24:07;23.90;;;14.70;;
60935;SDS011;46804;51.786;19.520;2023-04-16T07:28:08;31.13;;;19.98;;
60935;SDS011;46804;51.786;19.520;2023-04-16T07:32:09;45.60;;;23.92;;
60935;SDS011;46804;51.786;19.520;2023-04-16T07:36:09;27.05;;;14.48;;
60935;SDS011;46804;51.786;19.520;2023-04-16T07:40:10;42.78;;;20.58;;
60935;SDS011;46804;51.786;19.520;2023-04-16T07:44:11;23.77;;;13.43;;
60935;SDS011;46804;51.786;19.520;2023-04-16T07:48:12;25.27;;;13.82;;
60935;SDS011;46804;51.786;19.520;2023-04-16T07:52:13;66.28;;;26.25;;
60935;SDS011;46804;51.786;19.520;2023-04-16T07:56:14;37.97;;;17.85;;
60935;SDS011;46804;51.786;19.520;2023-04-16T08:00:14;21.83;;;13.13;;
60935;SDS011;46804;51.786;19.520;2023-04-16T08:04:15;37.80;;;16.33;;
60935;SDS011;46804;51.786;19.520;2023-04-16T08:08:22;22.52;;;11.68;;
60935;SDS011;46804;51.786;19.520;2023-04-16T08:12:23;25.98;;;14.57;;
60935;SDS011;46804;51.786;19.520;2023-04-16T08:16:24;26.27;;;13.07;;
60935;SDS011;46804;51.786;19.520;2023-04-16T08:20:24;39.25;;;17.45;;
60935;SDS011;46804;51.786;19.520;2023-04-16T08:24:25;42.00;;;17.02;;
60935;SDS011;46804;51.786;19.520;2023-04-16T08:28:26;18.17;;;11.60;;
60935;SDS011;46804;51.786;19.520;2023-04-16T08:32:27;34.65;;;15.80;;
60935;SDS011;46804;51.786;19.520;2023-04-16T08:36:28;15.63;;;11.05;;
60935;SDS011;46804;51.786;19.520;2023-04-16T08:40:29;17.40;;;10.55;;
60935;SDS011;46804;51.786;19.520;2023-04-16T08:44:31;14.68;;;10.25;;
60935;SDS011;46804;51.786;19.520;2023-04-16T08:48:34;22.92;;;11.38;;
60935;SDS011;46804;51.786;19.520;2023-04-16T08:52:36;18.92;;;10.98;;
60935;SDS011;46804;51.786;19.520;2023-04-16T08:56:37;14.93;;;9.90;;
60935;SDS011;46804;51.786;19.520;2023-04-16T09:00:41;26.08;;;13.30;;
60935;SDS011;46804;51.786;19.520;2023-04-16T09:04:42;15.05;;;9.93;;
60935;SDS011;46804;51.786;19.520;2023-04-16T09:08:44;11.85;;;8.35;;
60935;SDS011;46804;51.786;19.520;2023-04-16T09:12:45;13.95;;;8.80;;
60935;SDS011;46804;51.786;19.520;2023-04-16T09:16:46;13.82;;;8.55;;
60935;SDS011;46804;51.786;19.520;2023-04-16T09:20:50;15.45;;;9.88;;
60935;SDS011;46804;51.786;19.520;2023-04-16T09:24:51;12.38;;;9.07;;
60935;SDS011;46804;51.786;19.520;2023-04-16T09:28:52;15.20;;;9.13;;
60935;SDS011;46804;51.786;19.520;2023-04-16T09:33:11;14.35;;;9.05;;
60935;SDS011;46804;51.786;19.520;2023-04-16T09:37:21;13.35;;;8.88;;
60935;SDS011;46804;51.786;19.520;2023-04-16T09:41:25;11.77;;;8.05;;
60935;SDS011;46804;51.786;19.520;2023-04-16T09:45:30;12.80;;;7.97;;
60935;SDS011;46804;51.786;19.520;2023-04-16T09:49:39;11.70;;;7.43;;
60935;SDS011;46804;51.786;19.520;2023-04-16T09:53:41;11.68;;;8.05;;
60935;SDS011;46804;51.786;19.520;2023-04-16T09:57:42;10.25;;;7.70;;
60935;SDS011;46804;51.786;19.520;2023-04-16T10:01:43;12.13;;;7.40;;
60935;SDS011;46804;51.786;19.520;2023-04-16T10:05:46;11.88;;;8.13;;
60935;SDS011;46804;51.786;19.520;2023-04-16T10:09:47;14.63;;;8.70;;
60935;SDS011;46804;51.786;19.520;2023-04-16T10:13:48;12.20;;;7.78;;
60935;SDS011;46804;51.786;19.520;2023-04-16T10:17:50;10.63;;;7.78;;
60935;SDS011;46804;51.786;19.520;2023-04-16T10:21:53;10.40;;;7.60;;
60935;SDS011;46804;51.786;19.520;2023-04-16T10:25:55;11.70;;;7.47;;
60935;SDS011;46804;51.786;19.520;2023-04-16T10:29:58;11.13;;;7.75;;
60935;SDS011;46804;51.786;19.520;2023-04-16T10:34:00;10.88;;;7.10;;
60935;SDS011;46804;51.786;19.520;2023-04-16T10:38:20;9.02;;;7.13;;
60935;SDS011;46804;51.786;19.520;2023-04-16T10:42:27;10.30;;;7.07;;
60935;SDS011;46804;51.786;19.520;2023-04-16T10:46:32;9.65;;;6.95;;
60935;SDS011;46804;51.786;19.520;2023-04-16T10:50:37;10.38;;;6.72;;
60935;SDS011;46804;51.786;19.520;2023-04-16T10:54:38;11.10;;;7.55;;
60935;SDS011;46804;51.786;19.520;2023-04-16T10:58:39;11.30;;;7.68;;
60935;SDS011;46804;51.786;19.520;2023-04-16T11:02:40;9.88;;;7.05;;
60935;SDS011;46804;51.786;19.520;2023-04-16T11:06:40;10.25;;;6.97;;
60935;SDS011;46804;51.786;19.520;2023-04-16T11:11:06;9.65;;;6.70;;
60935;SDS011;46804;51.786;19.520;2023-04-16T11:15:08;9.63;;;7.00;;
60935;SDS011;46804;51.786;19.520;2023-04-16T11:19:16;9.98;;;7.55;;
60935;SDS011;46804;51.786;19.520;2023-04-16T11:23:17;11.30;;;6.90;;
60935;SDS011;46804;51.786;19.520;2023-04-16T11:27:17;8.50;;;6.20;;
60935;SDS011;46804;51.786;19.520;2023-04-16T11:31:18;10.30;;;6.43;;
60935;SDS011;46804;51.786;19.520;2023-04-16T11:35:19;9.98;;;7.63;;
60935;SDS011;46804;51.786;19.520;2023-04-16T11:39:20;10.10;;;6.80;;
60935;SDS011;46804;51.786;19.520;2023-04-16T11:43:20;9.18;;;6.28;;
60935;SDS011;46804;51.786;19.520;2023-04-16T11:47:24;10.95;;;6.53;;
60935;SDS011;46804;51.786;19.520;2023-04-16T11:51:26;10.10;;;7.07;;
60935;SDS011;46804;51.786;19.520;2023-04-16T11:55:26;8.80;;;6.47;;
60935;SDS011;46804;51.786;19.520;2023-04-16T11:59:27;9.20;;;6.78;;
60935;SDS011;46804;51.786;19.520;2023-04-16T12:03:40;9.60;;;7.25;;
60935;SDS011;46804;51.786;19.520;2023-04-16T12:07:45;9.77;;;7.03;;
60935;SDS011;46804;51.786;19.520;2023-04-16T12:11:45;9.07;;;6.25;;
60935;SDS011;46804;51.786;19.520;2023-04-16T12:15:51;9.25;;;6.38;;
60935;SDS011;46804;51.786;19.520;2023-04-16T12:19:56;11.18;;;7.25;;
60935;SDS011;46804;51.786;19.520;2023-04-16T12:23:59;8.75;;;6.63;;
60935;SDS011;46804;51.786;19.520;2023-04-16T12:28:00;10.15;;;6.35;;
60935;SDS011;46804;51.786;19.520;2023-04-16T12:32:01;8.65;;;5.95;;
60935;SDS011;46804;51.786;19.520;2023-04-16T12:36:15;9.38;;;5.90;;
60935;SDS011;46804;51.786;19.520;2023-04-16T12:40:17;8.25;;;5.75;;
60935;SDS011;46804;51.786;19.520;2023-04-16T12:44:18;9.52;;;6.45;;
60935;SDS011;46804;51.786;19.520;2023-04-16T12:48:18;7.57;;;5.72;;
60935;SDS011;46804;51.786;19.520;2023-04-16T12:52:19;7.57;;;5.18;;
60935;SDS011;46804;51.786;19.520;2023-04-16T12:56:20;8.35;;;5.00;;
60935;SDS011;46804;51.786;19.520;2023-04-16T13:00:21;7.80;;;5.40;;
60935;SDS011;46804;51.786;19.520;2023-04-16T13:04:22;7.97;;;5.72;;
60935;SDS011;46804;51.786;19.520;2023-04-16T13:08:23;9.05;;;5.75;;
60935;SDS011;46804;51.786;19.520;2023-04-16T13:12:23;8.40;;;6.30;;
60935;SDS011;46804;51.786;19.520;2023-04-16T13:16:24;7.78;;;5.80;;
60935;SDS011;46804;51.786;19.520;2023-04-16T13:20:25;8.07;;;5.57;;
60935;SDS011;46804;51.786;19.520;2023-04-16T13:24:26;7.68;;;5.82;;
60935;SDS011;46804;51.786;19.520;2023-04-16T13:28:26;8.75;;;5.47;;
60935;SDS011;46804;51.786;19.520;2023-04-16T13:32:27;7.27;;;5.80;;
60935;SDS011;46804;51.786;19.520;2023-04-16T13:36:28;9.43;;;5.65;;
60935;SDS011;46804;51.786;19.520;2023-04-16T13:40:30;7.55;;;5.13;;
60935;SDS011;46804;51.786;19.520;2023-04-16T13:44:30;8.32;;;5.57;;
60935;SDS011;46804;51.786;19.520;2023-04-16T13:48:31;7.85;;;5.30;;
60935;SDS011;46804;51.786;19.520;2023-04-16T13:52:31;10.32;;;6.47;;
60935;SDS011;46804;51.786;19.520;2023-04-16T13:56:32;7.32;;;5.97;;
60935;SDS011;46804;51.786;19.520;2023-04-16T14:00:33;11.20;;;7.82;;
60935;SDS011;46804;51.786;19.520;2023-04-16T14:04:34;10.48;;;6.65;;
60935;SDS011;46804;51.786;19.520;2023-04-16T14:08:35;9.43;;;7.10;;
60935;SDS011;46804;51.786;19.520;2023-04-16T14:12:37;9.25;;;6.57;;
60935;SDS011;46804;51.786;19.520;2023-04-16T14:16:38;9.15;;;6.32;;
60935;SDS011;46804;51.786;19.520;2023-04-16T14:20:39;8.70;;;6.63;;
60935;SDS011;46804;51.786;19.520;2023-04-16T14:24:40;8.15;;;5.88;;
60935;SDS011;46804;51.786;19.520;2023-04-16T14:28:40;8.48;;;7.10;;
60935;SDS011;46804;51.786;19.520;2023-04-16T14:32:41;9.68;;;7.22;;
60935;SDS011;46804;51.786;19.520;2023-04-16T14:36:42;12.38;;;7.55;;
60935;SDS011;46804;51.786;19.520;2023-04-16T14:40:43;11.23;;;7.32;;
60935;SDS011;46804;51.786;19.520;2023-04-16T14:44:44;10.18;;;7.15;;
60935;SDS011;46804;51.786;19.520;2023-04-16T14:48:45;8.85;;;6.32;;
60935;SDS011;46804;51.786;19.520;2023-04-16T14:52:46;9.57;;;7.03;;
60935;SDS011;46804;51.786;19.520;2023-04-16T14:56:46;8.90;;;6.68;;
60935;SDS011;46804;51.786;19.520;2023-04-16T15:00:49;10.80;;;7.07;;
60935;SDS011;46804;51.786;19.520;2023-04-16T15:04:50;9.85;;;6.78;;
60935;SDS011;46804;51.786;19.520;2023-04-16T15:08:51;10.32;;;6.70;;
60935;SDS011;46804;51.786;19.520;2023-04-16T15:12:51;11.95;;;8.23;;
60935;SDS011;46804;51.786;19.520;2023-04-16T15:16:52;22.27;;;10.32;;
60935;SDS011;46804;51.786;19.520;2023-04-16T15:20:53;16.55;;;9.02;;
60935;SDS011;46804;51.786;19.520;2023-04-16T15:24:54;12.73;;;8.25;;
60935;SDS011;46804;51.786;19.520;2023-04-16T15:28:55;13.02;;;8.25;;
60935;SDS011;46804;51.786;19.520;2023-04-16T15:32:56;13.52;;;8.80;;
60935;SDS011;46804;51.786;19.520;2023-04-16T15:36:56;12.10;;;8.50;;
60935;SDS011;46804;51.786;19.520;2023-04-16T15:40:57;14.02;;;8.48;;
60935;SDS011;46804;51.786;19.520;2023-04-16T15:44:59;10.95;;;6.95;;
60935;SDS011;46804;51.786;19.520;2023-04-16T15:49:00;10.52;;;6.72;;
60935;SDS011;46804;51.786;19.520;2023-04-16T15:53:01;10.00;;;7.35;;
60935;SDS011;46804;51.786;19.520;2023-04-16T15:57:02;14.25;;;9.38;;
60935;SDS011;46804;51.786;19.520;2023-04-16T16:01:03;12.38;;;7.22;;
60935;SDS011;46804;51.786;19.520;2023-04-16T16:05:05;14.02;;;8.00;;
60935;SDS011;46804;51.786;19.520;2023-04-16T16:09:07;12.32;;;7.20;;
60935;SDS011;46804;51.786;19.520;2023-04-16T16:13:07;8.93;;;6.60;;
60935;SDS011;46804;51.786;19.520;2023-04-16T16:17:12;12.63;;;8.38;;
60935;SDS011;46804;51.786;19.520;2023-04-16T16:21:13;10.52;;;7.75;;
60935;SDS011;46804;51.786;19.520;2023-04-16T16:25:13;9.35;;;6.60;;
60935;SDS011;46804;51.786;19.520;2023-04-16T16:29:14;10.27;;;6.70;;
60935;SDS011;46804;51.786;19.520;2023-04-16T16:33:15;13.80;;;7.97;;
60935;SDS011;46804;51.786;19.520;2023-04-16T16:37:16;12.50;;;9.25;;
60935;SDS011;46804;51.786;19.520;2023-04-16T16:41:16;10.95;;;7.03;;
60935;SDS011;46804;51.786;19.520;2023-04-16T16:45:17;9.63;;;6.85;;
60935;SDS011;46804;51.786;19.520;2023-04-16T16:49:18;13.25;;;8.35;;
60935;SDS011;46804;51.786;19.520;2023-04-16T16:53:19;8.77;;;6.82;;
60935;SDS011;46804;51.786;19.520;2023-04-16T16:57:20;11.73;;;7.70;;
60935;SDS011;46804;51.786;19.520;2023-04-16T17:01:21;18.98;;;10.18;;
60935;SDS011;46804;51.786;19.520;2023-04-16T17:05:21;23.98;;;11.20;;
60935;SDS011;46804;51.786;19.520;2023-04-16T17:09:22;18.85;;;10.60;;
60935;SDS011;46804;51.786;19.520;2023-04-16T17:13:23;14.05;;;9.23;;
60935;SDS011;46804;51.786;19.520;2023-04-16T17:17:25;15.57;;;8.30;;
60935;SDS011;46804;51.786;19.520;2023-04-16T17:21:26;19.77;;;9.60;;
60935;SDS011;46804;51.786;19.520;2023-04-16T17:25:27;16.83;;;10.70;;
60935;SDS011;46804;51.786;19.520;2023-04-16T17:29:28;13.65;;;8.30;;
60935;SDS011;46804;51.786;19.520;2023-04-16T17:33:30;26.70;;;11.27;;
60935;SDS011;46804;51.786;19.520;2023-04-16T17:37:31;26.25;;;14.98;;
60935;SDS011;46804;51.786;19.520;2023-04-16T17:41:32;16.63;;;9.68;;
60935;SDS011;46804;51.786;19.520;2023-04-16T17:45:32;15.23;;;9.35;;
60935;SDS011;46804;51.786;19.520;2023-04-16T17:49:33;15.85;;;11.32;;
60935;SDS011;46804;51.786;19.520;2023-04-16T17:53:34;18.80;;;11.65;;
60935;SDS011;46804;51.786;19.520;2023-04-16T17:57:34;13.85;;;9.93;;
60935;SDS011;46804;51.786;19.520;2023-04-16T18:01:36;20.60;;;10.48;;
60935;SDS011;46804;51.786;19.520;2023-04-16T18:05:36;16.85;;;11.98;;
60935;SDS011;46804;51.786;19.520;2023-04-16T18:09:37;21.85;;;11.60;;
60935;SDS011;46804;51.786;19.520;2023-04-16T18:13:38;15.25;;;10.02;;
60935;SDS011;46804;51.786;19.520;2023-04-16T18:17:39;14.65;;;9.60;;
60935;SDS011;46804;51.786;19.520;2023-04-16T18:21:39;14.02;;;9.50;;
60935;SDS011;46804;51.786;19.520;2023-04-16T18:25:40;13.38;;;9.55;;
60935;SDS011;46804;51.786;19.520;2023-04-16T18:29:41;15.35;;;10.50;;
60935;SDS011;46804;51.786;19.520;2023-04-16T18:33:42;15.80;;;10.30;;
60935;SDS011;46804;51.786;19.520;2023-04-16T18:37:46;14.63;;;9.43;;
60935;SDS011;46804;51.786;19.520;2023-04-16T18:41:46;14.88;;;10.05;;
60935;SDS011;46804;51.786;19.520;2023-04-16T18:45:47;24.77;;;11.90;;
60935;SDS011;46804;51.786;19.520;2023-04-16T18:49:48;20.30;;;12.55;;
60935;SDS011;46804;51.786;19.520;2023-04-16T18:53:48;30.30;;;15.70;;
60935;SDS011;46804;51.786;19.520;2023-04-16T18:57:50;29.27;;;15.20;;
60935;SDS011;46804;51.786;19.520;2023-04-16T19:01:51;16.15;;;10.18;;
60935;SDS011;46804;51.786;19.520;2023-04-16T19:05:52;16.58;;;9.88;;
60935;SDS011;46804;51.786;19.520;2023-04-16T19:09:53;15.10;;;9.95;;
60935;SDS011;46804;51.786;19.520;2023-04-16T19:13:54;16.35;;;11.18;;
60935;SDS011;46804;51.786;19.520;2023-04-16T19:17:55;18.98;;;12.23;;
60935;SDS011;46804;51.786;19.520;2023-04-16T19:21:55;17.48;;;10.77;;
60935;SDS011;46804;51.786;19.520;2023-04-16T19:25:56;15.90;;;10.82;;
60935;SDS011;46804;51.786;19.520;2023-04-16T19:29:57;19.38;;;10.25;;
60935;SDS011;46804;51.786;19.520;2023-04-16T19:33:58;21.80;;;11.57;;
60935;SDS011;46804;51.786;19.520;2023-04-16T19:37:58;21.65;;;13.68;;
60935;SDS011;46804;51.786;19.520;2023-04-16T19:41:59;23.70;;;13.50;;
60935;SDS011;46804;51.786;19.520;2023-04-16T19:46:01;20.98;;;13.85;;
60935;SDS011;46804;51.786;19.520;2023-04-16T19:50:02;17.63;;;12.88;;
60935;SDS011;46804;51.786;19.520;2023-04-16T19:54:03;20.73;;;12.95;;
60935;SDS011;46804;51.786;19.520;2023-04-16T19:58:04;20.98;;;13.20;;
60935;SDS011;46804;51.786;19.520;2023-04-16T20:02:06;22.80;;;12.13;;
60935;SDS011;46804;51.786;19.520;2023-04-16T20:06:07;18.38;;;13.23;;
60935;SDS011;46804;51.786;19.520;2023-04-16T20:10:08;20.65;;;13.65;;
60935;SDS011;46804;51.786;19.520;2023-04-16T20:14:09;20.63;;;13.55;;
60935;SDS011;46804;51.786;19.520;2023-04-16T20:18:10;25.08;;;13.38;;
60935;SDS011;46804;51.786;19.520;2023-04-16T20:22:12;22.23;;;13.80;;
60935;SDS011;46804;51.786;19.520;2023-04-16T20:26:14;22.42;;;14.07;;
60935;SDS011;46804;51.786;19.520;2023-04-16T20:30:17;20.27;;;13.27;;
60935;SDS011;46804;51.786;19.520;2023-04-16T20:34:18;21.17;;;13.10;;
60935;SDS011;46804;51.786;19.520;2023-04-16T20:38:18;22.73;;;14.35;;
60935;SDS011;46804;51.786;19.520;2023-04-16T20:42:22;23.10;;;15.98;;
60935;SDS011;46804;51.786;19.520;2023-04-16T20:46:25;22.92;;;14.35;;
60935;SDS011;46804;51.786;19.520;2023-04-16T20:50:29;24.98;;;14.07;;
60935;SDS011;46804;51.786;19.520;2023-04-16T20:54:30;22.55;;;14.50;;
60935;SDS011;46804;51.786;19.520;2023-04-16T20:58:31;20.65;;;13.98;;
60935;SDS011;46804;51.786;19.520;2023-04-16T21:02:32;18.33;;;11.20;;
60935;SDS011;46804;51.786;19.520;2023-04-16T21:06:33;20.83;;;11.55;;
60935;SDS011;46804;51.786;19.520;2023-04-16T21:10:39;18.02;;;11.85;;
60935;SDS011;46804;51.786;19.520;2023-04-16T21:14:40;17.13;;;10.25;;
60935;SDS011;46804;51.786;19.520;2023-04-16T21:18:40;20.10;;;12.10;;
60935;SDS011;46804;51.786;19.520;2023-04-16T21:22:41;19.35;;;11.63;;
60935;SDS011;46804;51.786;19.520;2023-04-16T21:26:42;20.92;;;11.00;;
60935;SDS011;46804;51.786;19.520;2023-04-16T21:30:42;17.95;;;11.40;;
60935;SDS011;46804;51.786;19.520;2023-04-16T21:34:43;17.85;;;11.57;;
60935;SDS011;46804;51.786;19.520;2023-04-16T21:38:43;19.33;;;11.03;;
60935;SDS011;46804;51.786;19.520;2023-04-16T21:42:44;15.98;;;10.60;;
60935;SDS011;46804;51.786;19.520;2023-04-16T21:46:45;17.80;;;10.43;;
60935;SDS011;46804;51.786;19.520;2023-04-16T21:50:45;16.60;;;10.82;;
60935;SDS011;46804;51.786;19.520;2023-04-16T21:54:46;18.20;;;11.07;;
60935;SDS011;46804;51.786;19.520;2023-04-16T21:58:48;18.98;;;12.15;;
60935;SDS011;46804;51.786;19.520;2023-04-16T22:02:48;21.80;;;13.05;;
60935;SDS011;46804;51.786;19.520;2023-04-16T22:06:53;24.52;;;15.05;;
60935;SDS011;46804;51.786;19.520;2023-04-16T22:10:56;23.00;;;14.38;;
60935;SDS011;46804;51.786;19.520;2023-04-16T22:15:01;25.17;;;15.25;;
60935;SDS011;46804;51.786;19.520;2023-04-16T22:19:01;26.15;;;15.25;;
60935;SDS011;46804;51.786;19.520;2023-04-16T22:23:02;24.83;;;16.35;;
60935;SDS011;46804;51.786;19.520;2023-04-16T22:27:03;30.92;;;16.75;;
60935;SDS011;46804;51.786;19.520;2023-04-16T22:31:04;25.33;;;16.00;;
60935;SDS011;46804;51.786;19.520;2023-04-16T22:35:04;25.52;;;15.15;;
60935;SDS011;46804;51.786;19.520;2023-04-16T22:39:05;24.05;;;13.57;;
60935;SDS011;46804;51.786;19.520;2023-04-16T22:43:07;25.35;;;14.13;;
60935;SDS011;46804;51.786;19.520;2023-04-16T22:47:08;25.17;;;14.55;;
60935;SDS011;46804;51.786;19.520;2023-04-16T22:51:09;27.30;;;15.82;;
60935;SDS011;46804;51.786;19.520;2023-04-16T22:55:10;27.23;;;15.40;;
60935;SDS011;46804;51.786;19.520;2023-04-16T22:59:10;25.60;;;15.73;;
60935;SDS011;46804;51.786;19.520;2023-04-16T23:03:11;23.58;;;14.48;;
60935;SDS011;46804;51.786;19.520;2023-04-16T23:07:12;26.23;;;14.95;;
60935;SDS011;46804;51.786;19.520;2023-04-16T23:11:13;28.77;;;14.77;;
60935;SDS011;46804;51.786;19.520;2023-04-16T23:15:14;26.55;;;14.55;;
60935;SDS011;46804;51.786;19.520;2023-04-16T23:19:15;24.60;;;14.63;;
60935;SDS011;46804;51.786;19.520;2023-04-16T23:23:16;24.30;;;15.50;;